Newton Lower Falls, MA

10:02 PM EST on November 28, 2014 (GMT -0500)
Wellesley Standish | Change Station
CLOSE
Current Station
Personal Weather Station
Location: Wellesley, MA
Elevation: 100 ft
Nearby Weather Stations

Elev 100 ft 42.31 °N, 71.26 °W | Updated 1 second ago

Clear
Clear
26.4 °F
Feels Like 26 °F
N
0.0
Wind Variable Wind from WNW
Gusts 3.0 mph

Today
High -- | Low -- °F
--% Chance of Precip.
Yesterday
High -- | Low -- °F
Precip. -- in
6:51 AM 4:14 PM
Waxing Crescent, 47% visible
Pressure 30.23 in
Visibility 10.0 miles
Clouds Clear
Windchill 26 °F
Dew Point 21 °F
Humidity 77%
Rainfall 0.00 in
Snow Depth Not available.
UV 0 out of 12
Pollen .10 out of 12
Air Quality Not available.
Flu Activity Not available.
METAR KBED 290256Z 33003KT 10SM CLR M07/M08 A3018 RMK AO2 SLP236 T10671083 51008

More Conditions Fewer Conditions

Pressure 30.23 in
Visibility 10.0 miles
Clouds Clear
Windchill 26 °F
Dew Point 21 °F
Humidity 77%
Rainfall 0.00 in
Snow Depth Not available.
UV 0 out of 12
Pollen .10 out of 12
Air Quality Not available.
Flu Activity Not available.
METAR KBED 290256Z 33003KT 10SM CLR M07/M08 A3018 RMK AO2 SLP236 T10671083 51008

More Conditions Fewer Conditions

10-Day Weather Forecast

Almanac

Astronomy

Nov. 28, 2014 Rise Set
Actual Time
Civil Twilight
Nautical Twilight
Astronomical Twilight
Moon
Length of Visible Light
Length of Day
Tomorrow will be .
, % of the Moon is Illuminated

Today's Extremes

State Highs State Lows

Community

WunderPhotos

Upload Photos

1,774,381 photos uploaded!

WunderBlogs® & News

Nearby

Air Quality

  Air Quality AQ Index Pollutant
Not available.

Snow Depth

Station Depth Elevation

Earthquake Activity

City Distance Mag. Time & Date
Minimum magnitude displayed is 2.5.

Coastal Water Temperatures

Place Temperature

Nearby Weather Stations